sensor_id;sensor_type;location;lat;lon;timestamp;temperature;humidity
22895;DHT22;11614;52.494;6.976;2022-09-03T00:13:51;16.50;58.30
22895;DHT22;11614;52.494;6.976;2022-09-03T00:16:21;16.60;58.50
22895;DHT22;11614;52.494;6.976;2022-09-03T00:18:52;16.50;58.60
22895;DHT22;11614;52.494;6.976;2022-09-03T00:21:40;16.50;61.30
22895;DHT22;11614;52.494;6.976;2022-09-03T00:24:11;16.40;58.60
22895;DHT22;11614;52.494;6.976;2022-09-03T00:26:39;16.40;58.70
22895;DHT22;11614;52.494;6.976;2022-09-03T00:31:57;16.40;59.00
22895;DHT22;11614;52.494;6.976;2022-09-03T00:34:34;16.40;66.50
22895;DHT22;11614;52.494;6.976;2022-09-03T00:37:00;16.40;59.10
22895;DHT22;11614;52.494;6.976;2022-09-03T00:39:26;16.30;68.90
22895;DHT22;11614;52.494;6.976;2022-09-03T00:42:08;16.30;59.30
22895;DHT22;11614;52.494;6.976;2022-09-03T01:14:03;16.10;73.00
22895;DHT22;11614;52.494;6.976;2022-09-03T01:25:45;15.80;72.50
22895;DHT22;11614;52.494;6.976;2022-09-03T01:28:16;15.90;60.70
22895;DHT22;11614;52.494;6.976;2022-09-03T01:30:56;15.90;60.90
22895;DHT22;11614;52.494;6.976;2022-09-03T01:33:34;15.80;78.10
22895;DHT22;11614;52.494;6.976;2022-09-03T01:39:03;15.60;75.10
22895;DHT22;11614;52.494;6.976;2022-09-03T01:50:03;15.60;62.10
22895;DHT22;11614;52.494;6.976;2022-09-03T01:52:48;15.50;62.50
22895;DHT22;11614;52.494;6.976;2022-09-03T01:58:18;15.50;62.80
22895;DHT22;11614;52.494;6.976;2022-09-03T02:13:25;15.40;69.40
22895;DHT22;11614;52.494;6.976;2022-09-03T02:15:55;15.50;76.80
22895;DHT22;11614;52.494;6.976;2022-09-03T02:18:28;15.40;70.00
22895;DHT22;11614;52.494;6.976;2022-09-03T02:20:56;15.30;76.90
22895;DHT22;11614;52.494;6.976;2022-09-03T02:23:23;15.20;69.60
22895;DHT22;11614;52.494;6.976;2022-09-03T02:25:54;15.30;63.90
22895;DHT22;11614;52.494;6.976;2022-09-03T02:28:20;15.30;63.80
22895;DHT22;11614;52.494;6.976;2022-09-03T02:30:46;15.20;63.90
22895;DHT22;11614;52.494;6.976;2022-09-03T02:33:13;15.20;64.10
22895;DHT22;11614;52.494;6.976;2022-09-03T02:35:40;15.20;64.30
22895;DHT22;11614;52.494;6.976;2022-09-03T02:38:32;15.10;64.50
22895;DHT22;11614;52.494;6.976;2022-09-03T02:40:58;14.90;71.70
22895;DHT22;11614;52.494;6.976;2022-09-03T03:01:04;14.90;66.00
22895;DHT22;11614;52.494;6.976;2022-09-03T03:03:30;15.00;71.80
22895;DHT22;11614;52.494;6.976;2022-09-03T03:05:58;14.80;66.80
22895;DHT22;11614;52.494;6.976;2022-09-03T03:08:26;14.70;72.80
22895;DHT22;11614;52.494;6.976;2022-09-03T03:10:55;14.70;82.50
22895;DHT22;11614;52.494;6.976;2022-09-03T03:13:23;14.70;73.20
22895;DHT22;11614;52.494;6.976;2022-09-03T03:18:15;14.60;73.90
22895;DHT22;11614;52.494;6.976;2022-09-03T03:20:42;15.00;82.00
22895;DHT22;11614;52.494;6.976;2022-09-03T03:25:36;14.60;68.10
22895;DHT22;11614;52.494;6.976;2022-09-03T03:28:02;14.40;72.30
22895;DHT22;11614;52.494;6.976;2022-09-03T03:32:55;14.50;68.10
22895;DHT22;11614;52.494;6.976;2022-09-03T03:35:21;14.70;71.30
22895;DHT22;11614;52.494;6.976;2022-09-03T03:37:47;14.50;81.00
22895;DHT22;11614;52.494;6.976;2022-09-03T03:40:13;14.50;68.90
22895;DHT22;11614;52.494;6.976;2022-09-03T03:42:40;14.60;73.60
22895;DHT22;11614;52.494;6.976;2022-09-03T03:47:32;14.40;77.30
22895;DHT22;11614;52.494;6.976;2022-09-03T03:57:19;14.60;82.10
22895;DHT22;11614;52.494;6.976;2022-09-03T03:59:46;14.50;69.70
22895;DHT22;11614;52.494;6.976;2022-09-03T04:02:13;14.70;77.70
22895;DHT22;11614;52.494;6.976;2022-09-03T04:07:05;14.50;70.10
22895;DHT22;11614;52.494;6.976;2022-09-03T04:11:57;14.40;75.90
22895;DHT22;11614;52.494;6.976;2022-09-03T04:14:23;14.40;70.40
22895;DHT22;11614;52.494;6.976;2022-09-03T04:19:16;14.60;81.90
22895;DHT22;11614;52.494;6.976;2022-09-03T04:21:42;14.30;71.10
22895;DHT22;11614;52.494;6.976;2022-09-03T04:24:08;14.40;77.90
22895;DHT22;11614;52.494;6.976;2022-09-03T04:29:02;14.10;83.90
22895;DHT22;11614;52.494;6.976;2022-09-03T04:33:55;14.20;73.10
22895;DHT22;11614;52.494;6.976;2022-09-03T04:36:22;14.20;73.20
22895;DHT22;11614;52.494;6.976;2022-09-03T04:38:52;14.20;79.20
22895;DHT22;11614;52.494;6.976;2022-09-03T04:41:21;14.40;84.10
22895;DHT22;11614;52.494;6.976;2022-09-03T04:43:50;14.30;72.80
22895;DHT22;11614;52.494;6.976;2022-09-03T04:46:17;14.20;85.40
22895;DHT22;11614;52.494;6.976;2022-09-03T04:48:43;14.30;73.10
22895;DHT22;11614;52.494;6.976;2022-09-03T04:51:16;14.30;73.10
22895;DHT22;11614;52.494;6.976;2022-09-03T04:53:43;14.40;80.10
22895;DHT22;11614;52.494;6.976;2022-09-03T04:56:18;14.30;73.50
22895;DHT22;11614;52.494;6.976;2022-09-03T04:58:45;14.30;79.80
22895;DHT22;11614;52.494;6.976;2022-09-03T05:01:16;14.60;73.70
22895;DHT22;11614;52.494;6.976;2022-09-03T05:06:08;14.50;73.50
22895;DHT22;11614;52.494;6.976;2022-09-03T05:11:07;14.60;86.30
22895;DHT22;11614;52.494;6.976;2022-09-03T05:13:34;14.40;74.20
22895;DHT22;11614;52.494;6.976;2022-09-03T05:16:06;14.50;73.50
22895;DHT22;11614;52.494;6.976;2022-09-03T05:18:32;14.50;73.30
22895;DHT22;11614;52.494;6.976;2022-09-03T05:21:11;14.50;80.50
22895;DHT22;11614;52.494;6.976;2022-09-03T05:33:33;18.30;66.20
